createdAt,value
2018-11-13T00:03:45.088Z,100.00
2018-11-13T00:08:45.645Z,100.00
2018-11-13T00:13:46.265Z,100.00
2018-11-13T00:18:46.930Z,100.00
2018-11-13T00:23:47.494Z,100.00
2018-11-13T00:28:49.096Z,100.00
2018-11-13T00:33:50.331Z,100.00
2018-11-13T00:38:51.044Z,100.00
2018-11-13T00:43:51.698Z,100.00
2018-11-13T00:48:52.267Z,100.00
2018-11-13T00:53:53.040Z,100.00
2018-11-13T00:58:53.597Z,100.00
2018-11-13T01:03:54.182Z,100.00
2018-11-13T01:08:54.825Z,100.00
2018-11-13T01:13:55.487Z,100.00
2018-11-13T01:18:56.051Z,100.00
2018-11-13T01:23:56.748Z,100.00
2018-11-13T01:28:57.325Z,100.00
2018-11-13T01:33:57.993Z,100.00
2018-11-13T01:38:58.580Z,100.00
2018-11-13T01:43:59.190Z,100.00
2018-11-13T01:48:59.819Z,100.00
2018-11-13T01:54:00.393Z,100.00
2018-11-13T01:59:01.028Z,100.00
2018-11-13T02:04:01.583Z,100.00
2018-11-13T02:09:02.217Z,100.00
2018-11-13T02:14:02.862Z,100.00
2018-11-13T02:19:03.453Z,100.00
2018-11-13T02:24:04.067Z,100.00
2018-11-13T02:29:04.676Z,100.00
2018-11-13T02:34:05.369Z,100.00
2018-11-13T02:39:06.018Z,100.00
2018-11-13T02:44:06.687Z,100.00
2018-11-13T02:49:07.324Z,100.00
2018-11-13T02:54:07.910Z,100.00
2018-11-13T02:59:08.491Z,100.00
2018-11-13T03:04:09.062Z,100.00
2018-11-13T03:09:09.706Z,100.00
2018-11-13T03:14:10.359Z,100.00
2018-11-13T03:19:11.029Z,100.00
2018-11-13T03:24:11.670Z,100.00
2018-11-13T03:29:12.314Z,100.00
2018-11-13T03:34:12.897Z,100.00
2018-11-13T03:39:13.494Z,100.00
2018-11-13T03:44:14.080Z,100.00
2018-11-13T03:49:14.969Z,100.00
2018-11-13T03:54:15.745Z,100.00
2018-11-13T03:59:16.483Z,100.00
2018-11-13T04:04:17.167Z,100.00
2018-11-13T04:09:17.767Z,100.00
2018-11-13T04:14:18.450Z,100.00
2018-11-13T04:19:19.076Z,100.00
2018-11-13T04:24:19.748Z,100.00
2018-11-13T04:29:20.584Z,100.00
2018-11-13T04:34:21.225Z,100.00
2018-11-13T04:39:21.839Z,100.00
2018-11-13T04:44:22.460Z,100.00
2018-11-13T04:49:23.099Z,100.00
2018-11-13T04:54:23.769Z,100.00
2018-11-13T04:59:24.488Z,100.00
2018-11-13T05:04:25.132Z,100.00
2018-11-13T05:09:25.794Z,100.00
2018-11-13T05:14:26.451Z,100.00
2018-11-13T05:19:27.005Z,100.00
2018-11-13T05:24:27.728Z,100.00
2018-11-13T05:29:31.565Z,100.00
2018-11-13T05:34:32.342Z,100.00
2018-11-13T05:39:33.087Z,100.00
2018-11-13T05:44:33.802Z,100.00
2018-11-13T05:49:34.449Z,100.00
2018-11-13T05:54:35.221Z,100.00
2018-11-13T05:59:38.831Z,100.00
2018-11-13T06:04:39.896Z,100.00
2018-11-13T06:09:41.626Z,100.00
2018-11-13T06:14:42.316Z,100.00
2018-11-13T06:19:45.551Z,100.00
2018-11-13T06:24:46.428Z,100.00
2018-11-13T06:29:47.235Z,100.00
2018-11-13T06:34:47.934Z,100.00
2018-11-13T06:39:48.621Z,100.00
2018-11-13T06:44:49.572Z,100.00
2018-11-13T06:49:50.352Z,100.00
2018-11-13T06:54:51.012Z,100.00
2018-11-13T06:59:51.700Z,100.00
2018-11-13T07:04:52.335Z,100.00
2018-11-13T07:09:52.981Z,100.00
2018-11-13T07:14:53.667Z,100.00
2018-11-13T07:19:54.536Z,100.00
2018-11-13T07:30:20.124Z,100.00
2018-11-13T07:35:20.830Z,100.00
2018-11-13T07:40:22.555Z,100.00
2018-11-13T07:45:23.388Z,100.00
2018-11-13T07:55:30.495Z,100.00
2018-11-13T08:00:35.847Z,100.00
2018-11-13T08:05:37.225Z,100.00
2018-11-13T08:10:37.895Z,100.00
2018-11-13T08:15:49.157Z,100.00
2018-11-13T08:20:50.628Z,100.00
2018-11-13T08:25:51.296Z,100.00
2018-11-13T08:30:52.097Z,100.00
2018-11-13T08:35:52.816Z,100.00
2018-11-13T08:40:53.585Z,100.00
2018-11-13T08:51:05.365Z,100.00
2018-11-13T08:56:06.046Z,100.00
2018-11-13T09:01:09.681Z,100.00
2018-11-13T09:06:10.412Z,100.00
2018-11-13T09:11:11.144Z,100.00
2018-11-13T09:16:11.817Z,100.00
2018-11-13T09:21:13.159Z,100.00
2018-11-13T09:26:13.949Z,100.00
2018-11-13T09:31:14.729Z,100.00
2018-11-13T09:36:16.656Z,100.00
2018-11-13T09:41:17.466Z,100.00
2018-11-13T09:46:18.109Z,100.00
2018-11-13T09:51:22.041Z,100.00
2018-11-13T09:56:26.468Z,100.00
2018-11-13T10:06:38.422Z,100.00
2018-11-13T10:11:43.727Z,100.00
2018-11-13T10:16:44.409Z,100.00
2018-11-13T10:21:45.101Z,100.00
2018-11-13T10:26:45.720Z,100.00
2018-11-13T10:31:46.439Z,99.96
2018-11-13T10:36:47.118Z,100.00
2018-11-13T10:41:47.828Z,100.00
2018-11-13T10:46:48.454Z,100.00
2018-11-13T10:51:49.106Z,100.00
2018-11-13T10:56:50.848Z,100.00
2018-11-13T11:01:51.499Z,100.00
2018-11-13T11:06:52.103Z,100.00
2018-11-13T11:11:52.831Z,100.00
2018-11-13T11:16:53.555Z,100.00
2018-11-13T11:21:54.197Z,97.78
2018-11-13T11:26:54.832Z,95.85
2018-11-13T11:31:55.433Z,93.81
2018-11-13T11:36:56.157Z,92.56
2018-11-13T11:41:56.813Z,90.53
2018-11-13T11:46:57.479Z,91.61
2018-11-13T11:51:58.203Z,90.64
2018-11-13T11:56:58.828Z,89.90
2018-11-13T12:01:59.516Z,88.15
2018-11-13T12:07:00.207Z,89.81
2018-11-13T12:12:01.075Z,90.88
2018-11-13T12:17:01.766Z,88.86
2018-11-13T12:22:03.499Z,91.86
2018-11-13T12:27:04.135Z,91.87
2018-11-13T12:32:04.844Z,89.47
2018-11-13T12:37:05.583Z,88.07
2018-11-13T12:42:06.323Z,86.27
2018-11-13T12:47:06.979Z,88.29
2018-11-13T12:52:07.653Z,88.97
2018-11-13T12:57:08.402Z,88.61
2018-11-13T13:02:09.316Z,89.99
2018-11-13T13:07:10.312Z,90.26
2018-11-13T13:12:11.136Z,89.04
2018-11-13T13:17:11.862Z,89.58
2018-11-13T13:22:12.542Z,87.14
2018-11-13T13:27:13.165Z,85.84
2018-11-13T13:37:20.113Z,88.40
2018-11-13T13:42:20.771Z,87.39
2018-11-13T13:47:21.384Z,86.69
2018-11-13T13:52:21.970Z,86.99
2018-11-13T13:57:22.584Z,86.92
2018-11-13T14:02:23.237Z,87.05
2018-11-13T14:07:24.835Z,83.66
2018-11-13T14:12:25.470Z,83.39
2018-11-13T14:17:26.096Z,83.94
2018-11-13T14:22:26.670Z,84.71
2018-11-13T14:27:28.146Z,85.48
2018-11-13T14:32:28.965Z,83.70
2018-11-13T14:37:29.664Z,85.25
2018-11-13T14:42:30.357Z,86.37
2018-11-13T14:47:30.980Z,88.46
2018-11-13T14:52:31.681Z,86.23
2018-11-13T14:57:32.477Z,87.97
2018-11-13T15:07:44.923Z,86.29
2018-11-13T15:12:48.048Z,86.65
2018-11-13T15:17:48.919Z,85.34
2018-11-13T15:22:49.588Z,88.03
2018-11-13T15:27:50.294Z,86.78
2018-11-13T15:32:59.652Z,89.73
2018-11-13T15:38:00.584Z,88.74
2018-11-13T15:43:01.337Z,90.03
2018-11-13T15:48:03.947Z,93.92
2018-11-13T15:53:07.914Z,94.19
2018-11-13T15:58:08.711Z,93.36
2018-11-13T16:03:09.544Z,93.59
2018-11-13T16:08:10.301Z,93.61
2018-11-13T16:13:10.986Z,94.59
2018-11-13T16:18:11.757Z,95.17
2018-11-13T16:23:13.361Z,95.49
2018-11-13T16:28:15.569Z,95.53
2018-11-13T16:33:17.039Z,95.21
2018-11-13T16:38:17.893Z,95.62
2018-11-13T16:43:18.487Z,95.50
2018-11-13T16:48:19.392Z,96.07
2018-11-13T16:53:19.979Z,96.00
2018-11-13T16:58:20.814Z,96.72
2018-11-13T17:03:21.551Z,95.68
2018-11-13T17:08:22.493Z,96.23
2018-11-13T17:19:47.597Z,99.27
2018-11-13T17:24:48.364Z,98.48
2018-11-13T17:29:49.064Z,96.95
2018-11-13T17:34:49.840Z,96.46
2018-11-13T17:39:50.514Z,95.77
2018-11-13T17:44:51.142Z,94.31
2018-11-13T17:49:52.057Z,93.84
2018-11-13T17:54:52.654Z,94.61
2018-11-13T17:59:53.305Z,95.62
2018-11-13T18:04:54.037Z,96.51
2018-11-13T18:09:54.741Z,97.34
2018-11-13T18:14:55.479Z,97.42
2018-11-13T18:19:56.258Z,98.60
2018-11-13T18:24:57.022Z,97.84
2018-11-13T18:29:57.660Z,97.69
2018-11-13T18:34:58.353Z,97.19
2018-11-13T18:39:58.997Z,97.99
2018-11-13T18:44:59.750Z,98.11
2018-11-13T18:50:00.533Z,98.40
2018-11-13T18:55:01.241Z,98.75
2018-11-13T19:00:01.943Z,99.11
2018-11-13T19:05:02.646Z,100.00
2018-11-13T19:10:03.338Z,100.00
2018-11-13T19:15:04.097Z,100.00
2018-11-13T19:20:04.848Z,100.00
2018-11-13T19:25:05.368Z,100.00
2018-11-13T19:30:06.065Z,100.00
2018-11-13T19:35:06.815Z,100.00
2018-11-13T19:40:07.410Z,100.00
2018-11-13T19:53:07.811Z,100.00
2018-11-13T19:58:08.684Z,100.00
2018-11-13T20:03:13.412Z,100.00
2018-11-13T20:08:14.432Z,100.00
2018-11-13T20:13:15.413Z,100.00
2018-11-13T20:18:16.187Z,100.00
2018-11-13T20:23:16.838Z,100.00
2018-11-13T20:28:19.743Z,100.00
2018-11-13T20:48:40.219Z,100.00
2018-11-13T20:53:41.041Z,100.00
2018-11-13T20:58:52.464Z,100.00
2018-11-13T21:03:57.664Z,100.00
2018-11-13T21:08:59.603Z,100.00
2018-11-13T21:19:46.495Z,100.00
2018-11-13T21:24:47.217Z,100.00
2018-11-13T21:29:47.959Z,100.00
2018-11-13T21:34:48.715Z,100.00
2018-11-13T21:39:49.446Z,100.00
2018-11-13T21:44:50.150Z,100.00
2018-11-13T21:49:50.907Z,100.00
2018-11-13T21:54:51.438Z,100.00
2018-11-13T21:59:52.072Z,100.00
2018-11-13T22:04:52.830Z,100.00
2018-11-13T22:09:53.646Z,100.00
2018-11-13T22:14:54.193Z,100.00
2018-11-13T22:19:54.874Z,100.00
2018-11-13T22:24:56.649Z,100.00
2018-11-13T22:29:57.331Z,100.00
2018-11-13T22:34:58.187Z,100.00
2018-11-13T22:39:58.861Z,100.00
2018-11-13T22:44:59.560Z,100.00
2018-11-13T22:50:00.220Z,100.00
2018-11-13T22:55:00.864Z,100.00
2018-11-13T23:00:01.548Z,100.00
2018-11-13T23:05:02.283Z,100.00
2018-11-13T23:10:02.902Z,100.00
2018-11-13T23:15:03.578Z,100.00
2018-11-13T23:20:04.182Z,100.00
2018-11-13T23:25:04.759Z,100.00
2018-11-13T23:30:05.409Z,100.00
2018-11-13T23:35:06.283Z,100.00
2018-11-13T23:40:06.614Z,100.00
2018-11-13T23:45:07.262Z,100.00
2018-11-13T23:50:07.897Z,100.00
2018-11-13T23:55:08.568Z,100.00
